sensor_id;sensor_type;location;lat;lon;timestamp;temperature;humidity
59961;DHT22;55902;-37.980;-63.602;2023-12-20T00:01:07;13.90;99.90
59961;DHT22;55902;-37.980;-63.602;2023-12-20T00:03:34;13.90;99.90
59961;DHT22;55902;-37.980;-63.602;2023-12-20T00:06:01;13.90;99.90
59961;DHT22;55902;-37.980;-63.602;2023-12-20T00:08:28;13.90;99.90
59961;DHT22;55902;-37.980;-63.602;2023-12-20T00:10:55;13.90;99.90
59961;DHT22;55902;-37.980;-63.602;2023-12-20T00:13:22;13.90;99.90
59961;DHT22;55902;-37.980;-63.602;2023-12-20T00:15:49;13.90;99.90
59961;DHT22;55902;-37.980;-63.602;2023-12-20T00:18:16;13.90;99.90
59961;DHT22;55902;-37.980;-63.602;2023-12-20T00:20:43;13.90;99.90
59961;DHT22;55902;-37.980;-63.602;2023-12-20T00:23:10;13.80;99.90
59961;DHT22;55902;-37.980;-63.602;2023-12-20T00:25:37;13.80;99.90
59961;DHT22;55902;-37.980;-63.602;2023-12-20T00:28:04;13.80;99.90
59961;DHT22;55902;-37.980;-63.602;2023-12-20T00:30:31;13.70;99.90
59961;DHT22;55902;-37.980;-63.602;2023-12-20T00:32:58;13.70;99.90
59961;DHT22;55902;-37.980;-63.602;2023-12-20T00:35:24;13.60;99.90
59961;DHT22;55902;-37.980;-63.602;2023-12-20T00:37:51;13.60;99.90
59961;DHT22;55902;-37.980;-63.602;2023-12-20T00:40:18;13.50;99.90
59961;DHT22;55902;-37.980;-63.602;2023-12-20T00:42:46;13.50;99.90
59961;DHT22;55902;-37.980;-63.602;2023-12-20T00:45:14;13.50;99.90
59961;DHT22;55902;-37.980;-63.602;2023-12-20T00:47:41;13.50;99.90
59961;DHT22;55902;-37.980;-63.602;2023-12-20T00:50:08;13.40;99.90
59961;DHT22;55902;-37.980;-63.602;2023-12-20T00:52:35;13.40;99.90
59961;DHT22;55902;-37.980;-63.602;2023-12-20T00:55:02;13.40;99.90
59961;DHT22;55902;-37.980;-63.602;2023-12-20T00:57:32;13.40;99.90
59961;DHT22;55902;-37.980;-63.602;2023-12-20T00:59:59;13.40;99.90
59961;DHT22;55902;-37.980;-63.602;2023-12-20T01:02:26;13.40;99.90
59961;DHT22;55902;-37.980;-63.602;2023-12-20T01:04:53;13.40;99.90
59961;DHT22;55902;-37.980;-63.602;2023-12-20T01:07:20;13.40;99.90
59961;DHT22;55902;-37.980;-63.602;2023-12-20T01:09:47;13.40;99.90
59961;DHT22;55902;-37.980;-63.602;2023-12-20T01:12:14;13.50;99.90
59961;DHT22;55902;-37.980;-63.602;2023-12-20T01:14:41;13.50;99.90
59961;DHT22;55902;-37.980;-63.602;2023-12-20T01:17:08;13.50;99.90
59961;DHT22;55902;-37.980;-63.602;2023-12-20T01:19:35;13.50;99.90
59961;DHT22;55902;-37.980;-63.602;2023-12-20T01:22:02;13.60;99.90
59961;DHT22;55902;-37.980;-63.602;2023-12-20T01:24:29;13.60;99.90
59961;DHT22;55902;-37.980;-63.602;2023-12-20T01:26:56;13.60;99.90
59961;DHT22;55902;-37.980;-63.602;2023-12-20T01:29:23;13.50;99.90
59961;DHT22;55902;-37.980;-63.602;2023-12-20T01:31:50;13.50;99.90
59961;DHT22;55902;-37.980;-63.602;2023-12-20T01:34:18;13.50;99.90
59961;DHT22;55902;-37.980;-63.602;2023-12-20T01:36:44;13.60;99.90
59961;DHT22;55902;-37.980;-63.602;2023-12-20T01:39:12;13.60;99.90
59961;DHT22;55902;-37.980;-63.602;2023-12-20T01:41:39;13.60;99.90
59961;DHT22;55902;-37.980;-63.602;2023-12-20T01:44:06;13.60;99.90
59961;DHT22;55902;-37.980;-63.602;2023-12-20T01:46:35;13.60;99.90
59961;DHT22;55902;-37.980;-63.602;2023-12-20T01:49:02;13.60;99.90
59961;DHT22;55902;-37.980;-63.602;2023-12-20T01:51:29;13.60;99.90
59961;DHT22;55902;-37.980;-63.602;2023-12-20T01:53:58;13.60;99.90
59961;DHT22;55902;-37.980;-63.602;2023-12-20T01:56:29;13.50;99.90
59961;DHT22;55902;-37.980;-63.602;2023-12-20T01:58:58;13.50;99.90
59961;DHT22;55902;-37.980;-63.602;2023-12-20T02:01:25;13.60;99.90
59961;DHT22;55902;-37.980;-63.602;2023-12-20T02:03:57;13.60;99.90
59961;DHT22;55902;-37.980;-63.602;2023-12-20T02:06:25;13.60;99.90
59961;DHT22;55902;-37.980;-63.602;2023-12-20T02:08:52;13.60;99.90
59961;DHT22;55902;-37.980;-63.602;2023-12-20T02:11:19;13.60;99.90
59961;DHT22;55902;-37.980;-63.602;2023-12-20T02:13:46;13.70;99.90
59961;DHT22;55902;-37.980;-63.602;2023-12-20T02:16:13;13.70;99.90
59961;DHT22;55902;-37.980;-63.602;2023-12-20T02:18:43;13.70;99.90
59961;DHT22;55902;-37.980;-63.602;2023-12-20T02:21:12;13.60;99.90
59961;DHT22;55902;-37.980;-63.602;2023-12-20T02:23:39;13.60;99.90
59961;DHT22;55902;-37.980;-63.602;2023-12-20T02:26:06;13.50;99.90
59961;DHT22;55902;-37.980;-63.602;2023-12-20T02:28:34;13.50;99.90
59961;DHT22;55902;-37.980;-63.602;2023-12-20T02:31:01;13.40;99.90
59961;DHT22;55902;-37.980;-63.602;2023-12-20T02:33:31;13.40;99.90
59961;DHT22;55902;-37.980;-63.602;2023-12-20T02:35:58;13.30;99.90
59961;DHT22;55902;-37.980;-63.602;2023-12-20T02:38:30;13.30;99.90
59961;DHT22;55902;-37.980;-63.602;2023-12-20T02:40:57;13.30;99.90
59961;DHT22;55902;-37.980;-63.602;2023-12-20T02:43:24;13.20;99.90
59961;DHT22;55902;-37.980;-63.602;2023-12-20T02:45:51;13.20;99.90
59961;DHT22;55902;-37.980;-63.602;2023-12-20T02:48:20;13.10;99.90
59961;DHT22;55902;-37.980;-63.602;2023-12-20T02:50:48;13.10;99.90
59961;DHT22;55902;-37.980;-63.602;2023-12-20T02:53:15;13.10;99.90
59961;DHT22;55902;-37.980;-63.602;2023-12-20T02:55:42;13.00;99.90
59961;DHT22;55902;-37.980;-63.602;2023-12-20T02:58:09;13.00;99.90
59961;DHT22;55902;-37.980;-63.602;2023-12-20T03:13:37;12.90;99.90
59961;DHT22;55902;-37.980;-63.602;2023-12-20T03:16:11;12.90;99.90
59961;DHT22;55902;-37.980;-63.602;2023-12-20T03:18:41;12.90;99.90
59961;DHT22;55902;-37.980;-63.602;2023-12-20T03:21:08;12.90;99.90
59961;DHT22;55902;-37.980;-63.602;2023-12-20T03:23:35;12.90;99.90
59961;DHT22;55902;-37.980;-63.602;2023-12-20T03:26:02;12.90;99.90
59961;DHT22;55902;-37.980;-63.602;2023-12-20T03:28:30;12.90;99.90
59961;DHT22;55902;-37.980;-63.602;2023-12-20T03:30:57;12.80;99.90
59961;DHT22;55902;-37.980;-63.602;2023-12-20T03:33:24;12.90;99.90
59961;DHT22;55902;-37.980;-63.602;2023-12-20T03:35:51;12.90;99.90
59961;DHT22;55902;-37.980;-63.602;2023-12-20T03:38:18;12.90;99.90
59961;DHT22;55902;-37.980;-63.602;2023-12-20T03:40:45;12.90;99.90
59961;DHT22;55902;-37.980;-63.602;2023-12-20T03:43:12;12.90;99.90
59961;DHT22;55902;-37.980;-63.602;2023-12-20T03:45:39;12.90;99.90
59961;DHT22;55902;-37.980;-63.602;2023-12-20T03:48:06;12.90;99.90
59961;DHT22;55902;-37.980;-63.602;2023-12-20T03:50:33;13.00;99.90
59961;DHT22;55902;-37.980;-63.602;2023-12-20T03:53:02;13.00;99.90
59961;DHT22;55902;-37.980;-63.602;2023-12-20T03:55:30;12.90;99.90
59961;DHT22;55902;-37.980;-63.602;2023-12-20T03:57:57;13.00;99.90
59961;DHT22;55902;-37.980;-63.602;2023-12-20T04:00:24;13.00;99.90
59961;DHT22;55902;-37.980;-63.602;2023-12-20T04:02:50;13.00;99.90
59961;DHT22;55902;-37.980;-63.602;2023-12-20T04:05:17;13.00;99.90
59961;DHT22;55902;-37.980;-63.602;2023-12-20T04:07:44;13.00;99.90
59961;DHT22;55902;-37.980;-63.602;2023-12-20T04:13:33;13.00;99.90
59961;DHT22;55902;-37.980;-63.602;2023-12-20T04:16:00;13.00;99.90
59961;DHT22;55902;-37.980;-63.602;2023-12-20T04:18:27;13.00;99.90
59961;DHT22;55902;-37.980;-63.602;2023-12-20T04:20:54;13.00;99.90
59961;DHT22;55902;-37.980;-63.602;2023-12-20T04:23:21;13.00;99.90
59961;DHT22;55902;-37.980;-63.602;2023-12-20T04:26:13;13.10;99.90
59961;DHT22;55902;-37.980;-63.602;2023-12-20T04:29:04;13.10;99.90
59961;DHT22;55902;-37.980;-63.602;2023-12-20T04:31:56;13.10;99.90
59961;DHT22;55902;-37.980;-63.602;2023-12-20T04:34:23;13.10;99.90
59961;DHT22;55902;-37.980;-63.602;2023-12-20T04:36:50;13.10;99.90
59961;DHT22;55902;-37.980;-63.602;2023-12-20T04:39:17;13.10;99.90
59961;DHT22;55902;-37.980;-63.602;2023-12-20T04:41:44;13.10;99.90
59961;DHT22;55902;-37.980;-63.602;2023-12-20T04:44:11;13.10;99.90
59961;DHT22;55902;-37.980;-63.602;2023-12-20T04:46:38;13.10;99.90
59961;DHT22;55902;-37.980;-63.602;2023-12-20T04:49:05;13.10;99.90
59961;DHT22;55902;-37.980;-63.602;2023-12-20T04:51:35;13.10;99.90
59961;DHT22;55902;-37.980;-63.602;2023-12-20T04:54:02;13.10;99.90
59961;DHT22;55902;-37.980;-63.602;2023-12-20T04:56:29;13.10;99.90
59961;DHT22;55902;-37.980;-63.602;2023-12-20T04:58:56;13.20;99.90
59961;DHT22;55902;-37.980;-63.602;2023-12-20T05:01:23;13.20;99.90
59961;DHT22;55902;-37.980;-63.602;2023-12-20T05:03:50;13.30;99.90
59961;DHT22;55902;-37.980;-63.602;2023-12-20T05:06:17;13.30;99.90
59961;DHT22;55902;-37.980;-63.602;2023-12-20T05:08:44;13.30;99.90
59961;DHT22;55902;-37.980;-63.602;2023-12-20T05:11:11;13.30;99.90
59961;DHT22;55902;-37.980;-63.602;2023-12-20T05:13:40;13.30;99.90
59961;DHT22;55902;-37.980;-63.602;2023-12-20T05:16:07;13.20;99.90
59961;DHT22;55902;-37.980;-63.602;2023-12-20T05:18:35;13.20;99.90
59961;DHT22;55902;-37.980;-63.602;2023-12-20T05:21:02;13.20;99.90
59961;DHT22;55902;-37.980;-63.602;2023-12-20T05:23:29;13.10;99.90
59961;DHT22;55902;-37.980;-63.602;2023-12-20T05:25:56;13.10;99.90
59961;DHT22;55902;-37.980;-63.602;2023-12-20T05:28:23;13.00;99.90
59961;DHT22;55902;-37.980;-63.602;2023-12-20T05:30:50;13.00;99.90
59961;DHT22;55902;-37.980;-63.602;2023-12-20T05:33:17;13.00;99.90
59961;DHT22;55902;-37.980;-63.602;2023-12-20T05:35:47;13.00;99.90
59961;DHT22;55902;-37.980;-63.602;2023-12-20T05:38:13;13.00;99.90
59961;DHT22;55902;-37.980;-63.602;2023-12-20T05:40:40;13.00;99.90
59961;DHT22;55902;-37.980;-63.602;2023-12-20T05:43:07;13.00;99.90
59961;DHT22;55902;-37.980;-63.602;2023-12-20T05:45:34;13.00;99.90
59961;DHT22;55902;-37.980;-63.602;2023-12-20T05:48:01;13.00;99.90
59961;DHT22;55902;-37.980;-63.602;2023-12-20T05:50:28;13.00;99.90
59961;DHT22;55902;-37.980;-63.602;2023-12-20T05:52:55;13.00;99.90
59961;DHT22;55902;-37.980;-63.602;2023-12-20T05:55:22;13.00;99.90
59961;DHT22;55902;-37.980;-63.602;2023-12-20T05:57:49;12.90;99.90
59961;DHT22;55902;-37.980;-63.602;2023-12-20T06:00:16;13.00;99.90
59961;DHT22;55902;-37.980;-63.602;2023-12-20T06:02:43;13.00;99.90
59961;DHT22;55902;-37.980;-63.602;2023-12-20T06:05:10;12.90;99.90
59961;DHT22;55902;-37.980;-63.602;2023-12-20T06:07:37;12.90;99.90
59961;DHT22;55902;-37.980;-63.602;2023-12-20T06:10:05;12.90;99.90
59961;DHT22;55902;-37.980;-63.602;2023-12-20T06:12:32;12.90;99.90
59961;DHT22;55902;-37.980;-63.602;2023-12-20T06:15:02;12.90;99.90
59961;DHT22;55902;-37.980;-63.602;2023-12-20T06:17:30;12.90;99.90
59961;DHT22;55902;-37.980;-63.602;2023-12-20T06:19:57;13.00;99.90
59961;DHT22;55902;-37.980;-63.602;2023-12-20T06:32:30;13.00;99.90
59961;DHT22;55902;-37.980;-63.602;2023-12-20T06:34:57;12.90;99.90
59961;DHT22;55902;-37.980;-63.602;2023-12-20T06:37:24;12.90;99.90
59961;DHT22;55902;-37.980;-63.602;2023-12-20T06:39:51;13.00;99.90
59961;DHT22;55902;-37.980;-63.602;2023-12-20T06:42:18;12.90;99.90
59961;DHT22;55902;-37.980;-63.602;2023-12-20T06:44:45;13.00;99.90
59961;DHT22;55902;-37.980;-63.602;2023-12-20T06:47:12;13.00;99.90
59961;DHT22;55902;-37.980;-63.602;2023-12-20T06:49:40;13.00;99.90
59961;DHT22;55902;-37.980;-63.602;2023-12-20T06:52:10;13.00;99.90
59961;DHT22;55902;-37.980;-63.602;2023-12-20T06:54:37;13.00;99.90
59961;DHT22;55902;-37.980;-63.602;2023-12-20T06:57:04;13.00;99.90
59961;DHT22;55902;-37.980;-63.602;2023-12-20T06:59:31;12.90;99.90
59961;DHT22;55902;-37.980;-63.602;2023-12-20T07:01:58;12.90;99.90
59961;DHT22;55902;-37.980;-63.602;2023-12-20T07:04:25;12.90;99.90
59961;DHT22;55902;-37.980;-63.602;2023-12-20T07:06:52;12.80;99.90
59961;DHT22;55902;-37.980;-63.602;2023-12-20T07:09:23;12.80;99.90
59961;DHT22;55902;-37.980;-63.602;2023-12-20T07:11:50;12.80;99.90
59961;DHT22;55902;-37.980;-63.602;2023-12-20T07:14:16;12.80;99.90
59961;DHT22;55902;-37.980;-63.602;2023-12-20T07:16:43;12.80;99.90
59961;DHT22;55902;-37.980;-63.602;2023-12-20T07:19:10;12.80;99.90
59961;DHT22;55902;-37.980;-63.602;2023-12-20T07:21:37;12.80;99.90
59961;DHT22;55902;-37.980;-63.602;2023-12-20T07:34:10;12.70;99.90
59961;DHT22;55902;-37.980;-63.602;2023-12-20T07:36:37;12.70;99.90
59961;DHT22;55902;-37.980;-63.602;2023-12-20T07:39:04;12.70;99.90
59961;DHT22;55902;-37.980;-63.602;2023-12-20T07:41:31;12.70;99.90
59961;DHT22;55902;-37.980;-63.602;2023-12-20T07:43:58;12.70;99.90
59961;DHT22;55902;-37.980;-63.602;2023-12-20T07:46:25;12.70;99.90
59961;DHT22;55902;-37.980;-63.602;2023-12-20T07:48:52;12.70;99.90
59961;DHT22;55902;-37.980;-63.602;2023-12-20T07:51:19;12.70;99.90
59961;DHT22;55902;-37.980;-63.602;2023-12-20T07:53:47;12.70;99.90
59961;DHT22;55902;-37.980;-63.602;2023-12-20T07:56:18;12.70;99.90
59961;DHT22;55902;-37.980;-63.602;2023-12-20T07:58:46;12.70;99.90
59961;DHT22;55902;-37.980;-63.602;2023-12-20T08:01:15;12.80;99.90
59961;DHT22;55902;-37.980;-63.602;2023-12-20T08:03:42;12.80;99.90
59961;DHT22;55902;-37.980;-63.602;2023-12-20T08:06:09;12.80;99.90
59961;DHT22;55902;-37.980;-63.602;2023-12-20T08:08:36;12.80;99.90
59961;DHT22;55902;-37.980;-63.602;2023-12-20T08:21:08;12.80;99.90
59961;DHT22;55902;-37.980;-63.602;2023-12-20T08:23:36;12.80;99.90
59961;DHT22;55902;-37.980;-63.602;2023-12-20T08:26:07;12.80;99.90
59961;DHT22;55902;-37.980;-63.602;2023-12-20T08:28:34;12.80;99.90
59961;DHT22;55902;-37.980;-63.602;2023-12-20T08:31:03;12.80;99.90
59961;DHT22;55902;-37.980;-63.602;2023-12-20T08:33:30;12.80;99.90
59961;DHT22;55902;-37.980;-63.602;2023-12-20T08:35:57;12.80;99.90
59961;DHT22;55902;-37.980;-63.602;2023-12-20T08:38:24;12.80;99.90
59961;DHT22;55902;-37.980;-63.602;2023-12-20T08:40:51;12.80;99.90
59961;DHT22;55902;-37.980;-63.602;2023-12-20T08:43:21;12.80;99.90
59961;DHT22;55902;-37.980;-63.602;2023-12-20T08:45:47;12.80;99.90
59961;DHT22;55902;-37.980;-63.602;2023-12-20T08:48:14;12.80;99.90
59961;DHT22;55902;-37.980;-63.602;2023-12-20T08:50:41;12.80;99.90
59961;DHT22;55902;-37.980;-63.602;2023-12-20T08:53:08;12.80;99.90
59961;DHT22;55902;-37.980;-63.602;2023-12-20T08:55:35;12.90;99.90
59961;DHT22;55902;-37.980;-63.602;2023-12-20T08:58:02;12.90;99.90
59961;DHT22;55902;-37.980;-63.602;2023-12-20T09:00:29;12.90;99.90
59961;DHT22;55902;-37.980;-63.602;2023-12-20T09:02:56;12.90;99.90
59961;DHT22;55902;-37.980;-63.602;2023-12-20T09:08:45;12.90;99.90
59961;DHT22;55902;-37.980;-63.602;2023-12-20T09:11:12;12.90;99.90
59961;DHT22;55902;-37.980;-63.602;2023-12-20T09:16:55;12.90;99.90
59961;DHT22;55902;-37.980;-63.602;2023-12-20T09:19:22;12.90;99.90
59961;DHT22;55902;-37.980;-63.602;2023-12-20T09:21:49;12.90;99.90
59961;DHT22;55902;-37.980;-63.602;2023-12-20T09:24:19;12.90;99.90
59961;DHT22;55902;-37.980;-63.602;2023-12-20T09:26:46;12.90;99.90
59961;DHT22;55902;-37.980;-63.602;2023-12-20T09:29:13;12.90;99.90
59961;DHT22;55902;-37.980;-63.602;2023-12-20T09:31:41;12.90;99.90
59961;DHT22;55902;-37.980;-63.602;2023-12-20T09:34:10;13.00;99.90
59961;DHT22;55902;-37.980;-63.602;2023-12-20T09:36:37;13.00;99.90
59961;DHT22;55902;-37.980;-63.602;2023-12-20T09:39:07;13.00;99.90
59961;DHT22;55902;-37.980;-63.602;2023-12-20T09:41:38;13.00;99.90
59961;DHT22;55902;-37.980;-63.602;2023-12-20T09:44:14;13.00;99.90
59961;DHT22;55902;-37.980;-63.602;2023-12-20T09:46:48;13.00;99.90
59961;DHT22;55902;-37.980;-63.602;2023-12-20T09:49:21;13.00;99.90
59961;DHT22;55902;-37.980;-63.602;2023-12-20T09:51:52;13.00;99.90
59961;DHT22;55902;-37.980;-63.602;2023-12-20T09:54:21;13.00;99.90
59961;DHT22;55902;-37.980;-63.602;2023-12-20T09:56:49;13.00;99.90
59961;DHT22;55902;-37.980;-63.602;2023-12-20T09:59:16;13.00;99.90
59961;DHT22;55902;-37.980;-63.602;2023-12-20T10:01:43;13.00;99.90
59961;DHT22;55902;-37.980;-63.602;2023-12-20T10:04:13;13.00;99.90
59961;DHT22;55902;-37.980;-63.602;2023-12-20T10:06:44;13.10;99.90
59961;DHT22;55902;-37.980;-63.602;2023-12-20T10:09:11;13.10;99.90
59961;DHT22;55902;-37.980;-63.602;2023-12-20T10:11:39;13.10;99.90
59961;DHT22;55902;-37.980;-63.602;2023-12-20T10:14:07;13.00;99.90
59961;DHT22;55902;-37.980;-63.602;2023-12-20T10:16:34;13.00;99.90
59961;DHT22;55902;-37.980;-63.602;2023-12-20T10:19:01;13.00;99.90
59961;DHT22;55902;-37.980;-63.602;2023-12-20T10:21:28;13.00;99.90
59961;DHT22;55902;-37.980;-63.602;2023-12-20T10:23:56;13.00;99.90
59961;DHT22;55902;-37.980;-63.602;2023-12-20T10:26:27;13.10;99.90
59961;DHT22;55902;-37.980;-63.602;2023-12-20T10:28:55;13.10;99.90
59961;DHT22;55902;-37.980;-63.602;2023-12-20T10:31:31;13.10;99.90
59961;DHT22;55902;-37.980;-63.602;2023-12-20T10:34:02;13.10;99.90
59961;DHT22;55902;-37.980;-63.602;2023-12-20T10:38:58;13.10;99.90
59961;DHT22;55902;-37.980;-63.602;2023-12-20T10:41:30;13.20;99.90
59961;DHT22;55902;-37.980;-63.602;2023-12-20T10:44:02;13.20;99.90
59961;DHT22;55902;-37.980;-63.602;2023-12-20T10:46:31;13.20;99.90
59961;DHT22;55902;-37.980;-63.602;2023-12-20T10:49:03;13.20;99.90
59961;DHT22;55902;-37.980;-63.602;2023-12-20T10:51:32;13.20;99.90
59961;DHT22;55902;-37.980;-63.602;2023-12-20T10:54:00;13.20;99.90
59961;DHT22;55902;-37.980;-63.602;2023-12-20T10:56:32;13.20;99.90
59961;DHT22;55902;-37.980;-63.602;2023-12-20T10:59:02;13.20;99.90
59961;DHT22;55902;-37.980;-63.602;2023-12-20T11:01:31;13.20;99.90
59961;DHT22;55902;-37.980;-63.602;2023-12-20T11:03:59;13.20;99.90
59961;DHT22;55902;-37.980;-63.602;2023-12-20T11:06:49;13.20;99.90
59961;DHT22;55902;-37.980;-63.602;2023-12-20T11:09:25;13.20;99.90
59961;DHT22;55902;-37.980;-63.602;2023-12-20T11:17:11;13.20;99.90
59961;DHT22;55902;-37.980;-63.602;2023-12-20T11:22:31;13.30;99.90
59961;DHT22;55902;-37.980;-63.602;2023-12-20T11:25:06;13.30;99.90
59961;DHT22;55902;-37.980;-63.602;2023-12-20T11:27:40;13.40;99.90
59961;DHT22;55902;-37.980;-63.602;2023-12-20T11:30:13;13.30;99.90
59961;DHT22;55902;-37.980;-63.602;2023-12-20T11:32:50;13.30;99.90
59961;DHT22;55902;-37.980;-63.602;2023-12-20T11:35:20;13.20;99.90
59961;DHT22;55902;-37.980;-63.602;2023-12-20T11:37:50;13.20;99.90
59961;DHT22;55902;-37.980;-63.602;2023-12-20T11:40:19;13.20;99.90
59961;DHT22;55902;-37.980;-63.602;2023-12-20T11:42:51;13.20;99.90
59961;DHT22;55902;-37.980;-63.602;2023-12-20T11:45:25;13.40;99.90
59961;DHT22;55902;-37.980;-63.602;2023-12-20T11:48:14;13.50;99.90
59961;DHT22;55902;-37.980;-63.602;2023-12-20T11:50:45;13.70;99.90
59961;DHT22;55902;-37.980;-63.602;2023-12-20T11:56:30;13.90;99.90
59961;DHT22;55902;-37.980;-63.602;2023-12-20T11:58:58;14.00;99.90
59961;DHT22;55902;-37.980;-63.602;2023-12-20T12:01:25;14.10;99.90
59961;DHT22;55902;-37.980;-63.602;2023-12-20T12:04:03;14.10;99.90
59961;DHT22;55902;-37.980;-63.602;2023-12-20T12:06:33;14.30;99.90
59961;DHT22;55902;-37.980;-63.602;2023-12-20T12:09:00;14.50;99.90
59961;DHT22;55902;-37.980;-63.602;2023-12-20T12:11:27;14.50;99.90
59961;DHT22;55902;-37.980;-63.602;2023-12-20T12:13:55;14.50;99.90
59961;DHT22;55902;-37.980;-63.602;2023-12-20T12:16:22;14.50;99.90
59961;DHT22;55902;-37.980;-63.602;2023-12-20T12:19:02;14.50;99.90
59961;DHT22;55902;-37.980;-63.602;2023-12-20T12:21:30;14.50;99.90
59961;DHT22;55902;-37.980;-63.602;2023-12-20T12:24:10;14.60;99.90
59961;DHT22;55902;-37.980;-63.602;2023-12-20T12:26:37;14.70;99.90
59961;DHT22;55902;-37.980;-63.602;2023-12-20T12:29:06;14.70;99.90
59961;DHT22;55902;-37.980;-63.602;2023-12-20T12:31:37;14.80;99.90
59961;DHT22;55902;-37.980;-63.602;2023-12-20T12:34:04;14.80;99.90
59961;DHT22;55902;-37.980;-63.602;2023-12-20T12:36:31;14.90;99.90
59961;DHT22;55902;-37.980;-63.602;2023-12-20T12:39:01;14.90;99.90
59961;DHT22;55902;-37.980;-63.602;2023-12-20T12:41:30;14.90;99.90
59961;DHT22;55902;-37.980;-63.602;2023-12-20T12:44:00;15.10;99.90
59961;DHT22;55902;-37.980;-63.602;2023-12-20T12:46:27;15.20;99.90
59961;DHT22;55902;-37.980;-63.602;2023-12-20T12:48:54;15.20;99.90
59961;DHT22;55902;-37.980;-63.602;2023-12-20T12:51:21;15.10;99.90
59961;DHT22;55902;-37.980;-63.602;2023-12-20T12:53:48;15.00;99.90
59961;DHT22;55902;-37.980;-63.602;2023-12-20T12:56:15;15.00;99.90
59961;DHT22;55902;-37.980;-63.602;2023-12-20T12:58:43;15.10;99.90
59961;DHT22;55902;-37.980;-63.602;2023-12-20T13:01:10;15.20;99.90
59961;DHT22;55902;-37.980;-63.602;2023-12-20T13:03:37;15.20;99.90
59961;DHT22;55902;-37.980;-63.602;2023-12-20T13:06:08;15.20;99.90
59961;DHT22;55902;-37.980;-63.602;2023-12-20T13:12:48;15.20;99.90
59961;DHT22;55902;-37.980;-63.602;2023-12-20T13:15:15;15.20;99.90
59961;DHT22;55902;-37.980;-63.602;2023-12-20T13:17:43;15.30;99.90
59961;DHT22;55902;-37.980;-63.602;2023-12-20T13:20:13;15.50;99.90
59961;DHT22;55902;-37.980;-63.602;2023-12-20T13:22:43;15.60;99.90
59961;DHT22;55902;-37.980;-63.602;2023-12-20T13:25:10;15.70;99.90
59961;DHT22;55902;-37.980;-63.602;2023-12-20T13:27:37;15.80;99.90
59961;DHT22;55902;-37.980;-63.602;2023-12-20T13:30:05;15.80;99.90
59961;DHT22;55902;-37.980;-63.602;2023-12-20T13:32:33;15.60;99.90
59961;DHT22;55902;-37.980;-63.602;2023-12-20T13:35:00;15.40;99.90
59961;DHT22;55902;-37.980;-63.602;2023-12-20T13:37:27;15.20;99.90
59961;DHT22;55902;-37.980;-63.602;2023-12-20T13:39:55;15.20;99.90
59961;DHT22;55902;-37.980;-63.602;2023-12-20T13:42:22;15.20;99.90
59961;DHT22;55902;-37.980;-63.602;2023-12-20T13:44:53;15.30;99.90
59961;DHT22;55902;-37.980;-63.602;2023-12-20T13:47:23;15.50;99.90
59961;DHT22;55902;-37.980;-63.602;2023-12-20T13:49:53;15.50;99.90
59961;DHT22;55902;-37.980;-63.602;2023-12-20T13:52:22;15.60;99.90
59961;DHT22;55902;-37.980;-63.602;2023-12-20T13:54:52;15.70;99.90
59961;DHT22;55902;-37.980;-63.602;2023-12-20T13:57:19;15.70;99.90
59961;DHT22;55902;-37.980;-63.602;2023-12-20T13:59:49;15.80;99.90
59961;DHT22;55902;-37.980;-63.602;2023-12-20T14:02:19;15.90;99.90
59961;DHT22;55902;-37.980;-63.602;2023-12-20T14:04:58;15.90;99.90
59961;DHT22;55902;-37.980;-63.602;2023-12-20T14:07:49;16.00;99.90
59961;DHT22;55902;-37.980;-63.602;2023-12-20T14:10:16;16.10;99.90
59961;DHT22;55902;-37.980;-63.602;2023-12-20T14:12:43;16.10;99.90
59961;DHT22;55902;-37.980;-63.602;2023-12-20T14:15:11;16.10;99.90
59961;DHT22;55902;-37.980;-63.602;2023-12-20T14:17:40;16.10;99.90
59961;DHT22;55902;-37.980;-63.602;2023-12-20T14:20:09;16.10;99.90
59961;DHT22;55902;-37.980;-63.602;2023-12-20T14:22:39;16.10;99.90
59961;DHT22;55902;-37.980;-63.602;2023-12-20T14:25:16;16.10;99.90
59961;DHT22;55902;-37.980;-63.602;2023-12-20T14:27:46;16.20;99.90
59961;DHT22;55902;-37.980;-63.602;2023-12-20T14:30:13;16.40;99.90
59961;DHT22;55902;-37.980;-63.602;2023-12-20T14:32:44;16.60;99.90
59961;DHT22;55902;-37.980;-63.602;2023-12-20T14:35:12;16.80;99.90
59961;DHT22;55902;-37.980;-63.602;2023-12-20T14:37:40;16.90;99.90
59961;DHT22;55902;-37.980;-63.602;2023-12-20T14:40:11;17.10;99.90
59961;DHT22;55902;-37.980;-63.602;2023-12-20T14:42:44;17.10;99.90
59961;DHT22;55902;-37.980;-63.602;2023-12-20T14:45:12;17.00;99.90
59961;DHT22;55902;-37.980;-63.602;2023-12-20T14:47:45;16.90;99.90
59961;DHT22;55902;-37.980;-63.602;2023-12-20T14:50:14;16.80;99.90
59961;DHT22;55902;-37.980;-63.602;2023-12-20T14:52:48;16.70;99.90
59961;DHT22;55902;-37.980;-63.602;2023-12-20T14:55:16;16.80;99.90
59961;DHT22;55902;-37.980;-63.602;2023-12-20T14:57:43;17.00;99.90
59961;DHT22;55902;-37.980;-63.602;2023-12-20T15:00:15;17.10;99.90
59961;DHT22;55902;-37.980;-63.602;2023-12-20T15:02:43;17.20;99.90
59961;DHT22;55902;-37.980;-63.602;2023-12-20T15:05:10;17.30;99.90
59961;DHT22;55902;-37.980;-63.602;2023-12-20T15:07:37;17.50;99.90
59961;DHT22;55902;-37.980;-63.602;2023-12-20T15:10:05;17.50;99.90
59961;DHT22;55902;-37.980;-63.602;2023-12-20T15:12:46;17.70;99.90
59961;DHT22;55902;-37.980;-63.602;2023-12-20T15:15:23;18.00;99.90
59961;DHT22;55902;-37.980;-63.602;2023-12-20T15:17:54;18.10;99.90
59961;DHT22;55902;-37.980;-63.602;2023-12-20T15:20:21;18.20;99.90
59961;DHT22;55902;-37.980;-63.602;2023-12-20T15:22:48;18.20;99.90
59961;DHT22;55902;-37.980;-63.602;2023-12-20T15:25:15;18.00;99.90
59961;DHT22;55902;-37.980;-63.602;2023-12-20T15:30:33;17.80;99.90
59961;DHT22;55902;-37.980;-63.602;2023-12-20T15:33:05;17.70;99.90
59961;DHT22;55902;-37.980;-63.602;2023-12-20T15:35:32;17.70;99.90
59961;DHT22;55902;-37.980;-63.602;2023-12-20T15:37:59;17.60;99.90
59961;DHT22;55902;-37.980;-63.602;2023-12-20T15:40:27;17.60;99.90
59961;DHT22;55902;-37.980;-63.602;2023-12-20T15:42:54;17.70;99.90
59961;DHT22;55902;-37.980;-63.602;2023-12-20T15:45:22;17.80;99.90
59961;DHT22;55902;-37.980;-63.602;2023-12-20T15:47:53;17.90;99.90
59961;DHT22;55902;-37.980;-63.602;2023-12-20T15:50:23;18.00;99.90
59961;DHT22;55902;-37.980;-63.602;2023-12-20T15:52:50;18.00;99.90
59961;DHT22;55902;-37.980;-63.602;2023-12-20T15:55:17;18.00;99.90
59961;DHT22;55902;-37.980;-63.602;2023-12-20T16:07:50;18.90;99.90
59961;DHT22;55902;-37.980;-63.602;2023-12-20T16:10:17;19.10;99.90
59961;DHT22;55902;-37.980;-63.602;2023-12-20T16:12:48;19.20;99.90
59961;DHT22;55902;-37.980;-63.602;2023-12-20T16:15:15;19.40;99.90
59961;DHT22;55902;-37.980;-63.602;2023-12-20T16:17:44;19.50;99.90
59961;DHT22;55902;-37.980;-63.602;2023-12-20T16:20:11;19.40;99.90